Latest Weather Observations for Rhyll

IDV60801

Issued at 6:05 pm EDT Friday 28 November 2014 (issued every 30 minutes, with the page automatically refreshed every 10 minutes)

About weather observations | Map of weather stations | Latest weather observations for VIC | Other Formats
Station Details ID: 086373 Name: RHYLL Lat: -38.46 Lon: 145.31 Height: 13.4 m
Data from the previous 72 hours. | See also: Recent months at Rhyll
Date/Time
EDT
Temp
°C
App
Temp
°C
Dew
Point
Rel
Hum
%
Delta-T
°C
Wind Press
QNH
hPa
Press
MSL
hPa
Rain
since 9 am
mm
Dir
 
Spd
km/h
Gust
km/h
Spd
kts
Gust
kts
28/06:00pm 17.4 15.9 11.9 70 3.0 S 11 20 6 11 1020.1 1020.1 0.0
28/05:30pm 16.9 14.9 11.4 70 3.0 S 13 26 7 14 1020.4 1020.4 0.0
28/05:00pm 18.3 17.3 12.3 68 3.3 S 9 17 5 9 1020.4 1020.4 0.0
28/04:30pm 17.5 16.3 11.5 68 3.3 S 9 17 5 9 1020.5 1020.5 0.0
28/04:00pm 17.7 16.4 11.3 66 3.5 S 9 17 5 9 1020.9 1020.9 0.0
28/03:30pm 17.6 15.9 11.2 66 3.5 S 11 19 6 10 1021.2 1021.2 0.0
28/03:00pm 18.1 16.5 11.7 66 3.5 S 11 19 6 10 1021.5 1021.5 0.0
28/02:30pm 18.1 16.8 11.4 65 3.7 S 9 15 5 8 1021.7 1021.7 0.0
28/02:00pm 18.5 17.6 12.7 69 3.2 S 9 19 5 10 1022.1 1022.1 0.0
28/01:30pm 17.8 16.4 10.9 64 3.7 S 9 17 5 9 1022.5 1022.5 0.0
28/01:00pm 17.3 15.5 10.9 66 3.4 S 11 20 6 11 1022.8 1022.8 0.0
28/12:30pm 18.4 17.6 12.8 70 3.1 S 9 19 5 10 1023.1 1023.1 0.0
28/12:00pm 17.4 15.8 11.4 68 3.2 S 11 20 6 11 1023.2 1023.2 0.0
28/11:30am 18.0 17.2 11.6 66 3.5 SSE 7 11 4 6 1023.4 1023.4 0.0
28/11:00am 17.3 16.5 11.1 67 3.3 NE 6 9 3 5 1023.5 1023.5 0.0
28/10:30am 15.6 13.5 9.9 69 3.0 N 11 19 6 10 1023.8 1023.8 0.0
28/10:00am 15.0 13.1 9.1 68 3.0 N 9 13 5 7 1024.2 1024.2 0.0
28/09:30am 17.1 16.2 10.5 65 3.5 ENE 6 9 3 5 1024.1 1024.1 0.0
28/09:00am 16.9 16.0 10.7 67 3.3 ESE 6 7 3 4 1024.2 1024.2 0.0
28/08:30am 13.6 12.2 8.7 72 2.5 W 6 9 3 5 1024.2 1024.2 0.0
28/08:00am 13.6 12.7 9.1 74 2.3 W 4 7 2 4 1024.3 1024.3 0.0
28/07:30am 13.2 12.2 8.9 75 2.2 S 4 7 2 4 1024.0 1024.0 0.0
28/07:00am 13.4 12.3 10.0 80 1.7 S 6 9 3 5 1023.8 1023.8 0.0
28/06:30am 12.6 11.4 9.4 81 1.6 S 6 11 3 6 1023.4 1023.4 0.0
28/06:00am 11.8 10.4 9.4 85 1.2 S 7 13 4 7 1023.1 1023.1 0.0
28/05:30am 11.7 10.2 9.1 84 1.3 S 7 15 4 8 1022.8 1022.8 0.0
28/05:00am 11.8 10.0 9.5 86 1.2 S 9 17 5 9 1022.5 1022.5 0.0
28/04:30am 11.9 10.4 9.3 84 1.3 S 7 13 4 7 1022.4 1022.4 0.0
28/04:00am 12.1 10.3 9.5 84 1.3 S 9 15 5 8 1022.5 1022.5 0.0
28/03:30am 11.7 9.9 9.3 85 1.2 S 9 13 5 7 1022.5 1022.5 0.0
28/03:00am 11.7 9.9 9.4 86 1.2 SSE 9 17 5 9 1022.5 1022.5 0.0
28/02:30am 11.4 9.9 9.1 86 1.1 SSE 7 13 4 7 1022.8 1022.8 0.0
28/02:00am 11.5 10.1 8.9 84 1.3 S 6 11 3 6 1023.2 1023.2 0.0
28/01:30am 12.2 11.0 9.4 83 1.4 SE 6 11 3 6 1023.4 1023.4 0.0
28/01:00am 12.2 10.7 9.2 82 1.5 SSE 7 13 4 7 1023.7 1023.7 0.0
28/12:30am 12.4 11.3 10.0 85 1.2 SSE 6 9 3 5 1024.2 1024.2 0.0
28/12:00am 12.0 10.6 9.6 85 1.2 SSE 7 13 4 7 1024.4 1024.4 0.0
 
Date/Time
EDT
Temp
°C
App
Temp
°C
Dew
Point
Rel
Hum
%
Delta-T
°C
Wind Press
QNH
hPa
Press
MSL
hPa
Rain
since 9 am
mm
Dir
 
Spd
km/h
Gust
km/h
Spd
kts
Gust
kts
27/11:30pm 12.1 10.8 9.8 86 1.2 S 7 11 4 6 1024.4 1024.4 0.0
27/11:00pm 12.2 10.5 9.8 85 1.2 S 9 15 5 8 1024.5 1024.5 0.0
27/10:30pm 11.7 9.9 9.3 85 1.2 S 9 13 5 7 1024.8 1024.8 0.0
27/10:00pm 11.9 10.1 9.3 84 1.3 S 9 13 5 7 1024.8 1024.8 0.0
27/09:30pm 12.4 10.2 9.4 82 1.5 S 11 19 6 10 1024.8 1024.8 0.0
27/09:00pm 12.4 10.2 9.2 81 1.6 S 11 20 6 11 1024.5 1024.5 0.0
27/08:30pm 12.8 10.5 9.1 78 1.9 S 11 19 6 10 1024.7 1024.7 0.0
27/08:00pm 13.3 11.1 9.2 76 2.1 S 11 17 6 9 1024.7 1024.7 0.0
27/07:30pm 14.5 12.3 9.5 72 2.6 S 11 20 6 11 1024.8 1024.8 0.0
27/07:00pm 14.6 12.0 9.2 70 2.7 S 13 26 7 14 1024.8 1024.8 0.0
27/06:30pm 15.8 13.7 9.7 67 3.2 S 11 17 6 9 1024.8 1024.8 0.0
27/06:00pm 16.1 14.1 10.2 68 3.1 S 11 19 6 10 1024.8 1024.8 0.0
27/05:30pm 16.2 14.1 9.8 66 3.3 S 11 19 6 10 1024.9 1024.9 0.0
27/05:00pm 16.5 14.5 10.1 66 3.4 S 11 19 6 10 1025.1 1025.1 0.0
27/04:30pm 16.1 13.9 9.5 65 3.4 S 11 19 6 10 1025.0 1025.0 0.0
27/04:00pm 16.4 13.9 9.6 64 3.5 S 13 24 7 13 1025.3 1025.3 0.0
27/03:30pm 16.8 14.3 9.7 63 3.7 S 13 19 7 10 1025.6 1025.6 0.0
27/03:00pm 17.6 15.7 10.5 63 3.8 S 11 22 6 12 1025.6 1025.6 0.0
27/02:30pm 17.6 15.6 10.2 62 3.9 S 11 22 6 12 1025.6 1025.6 0.0
27/02:00pm 16.9 14.9 10.3 65 3.5 S 11 19 6 10 1025.8 1025.8 0.0
27/01:30pm 16.4 13.8 9.3 63 3.7 S 13 24 7 13 1026.0 1026.0 0.0
27/01:00pm 16.6 14.2 8.6 59 4.1 S 11 19 6 10 1026.1 1026.1 0.0
27/12:30pm 16.6 14.4 9.3 62 3.8 S 11 20 6 11 1026.2 1026.2 0.0
27/12:00pm 17.4 15.3 9.8 61 4.0 S 11 17 6 9 1026.4 1026.4 0.0
27/11:30am 17.1 15.0 9.8 62 3.8 S 11 19 6 10 1026.4 1026.4 0.0
27/11:00am 15.1 12.5 7.9 62 3.6 S 11 22 6 12 1026.6 1026.6 0.0
27/10:30am 15.8 13.9 9.0 64 3.5 S 9 13 5 7 1026.7 1026.7 0.0
27/10:00am 14.5 12.3 7.8 64 3.3 S 9 17 5 9 1026.6 1026.6 0.0
27/09:30am 15.0 13.3 8.5 65 3.3 S 7 13 4 7 1026.5 1026.5 0.0
27/09:00am 13.9 11.8 8.1 68 2.9 SSW 9 15 5 8 1026.5 1026.5 0.4
27/08:30am 13.3 10.4 6.6 64 3.2 SSW 11 20 6 11 1026.4 1026.4 0.4
27/08:00am 13.1 10.3 6.9 66 3.0 S 11 24 6 13 1026.1 1026.1 0.4
27/07:30am 13.1 10.3 7.1 67 2.9 SSW 11 20 6 11 1025.7 1025.7 0.4
27/07:00am 13.1 10.6 8.0 71 2.5 S 11 17 6 9 1025.4 1025.4 0.4
27/06:30am 12.8 11.0 7.0 68 2.8 S 6 11 3 6 1025.1 1025.1 0.4
27/06:00am 12.7 9.8 6.5 66 2.9 S 11 19 6 10 1024.9 1024.9 0.4
27/05:30am 13.0 10.0 7.7 70 2.6 S 13 22 7 12 1024.4 1024.4 0.4
27/05:00am 13.0 10.6 6.8 66 3.0 S 9 19 5 10 1024.0 1024.0 0.4
27/04:30am 12.9 9.7 6.7 66 3.0 S 13 26 7 14 1023.8 1023.8 0.4
27/04:00am 12.9 10.0 6.7 66 3.0 S 11 22 6 12 1023.7 1023.7 0.4
27/03:30am 13.2 10.2 7.6 69 2.7 S 13 22 7 12 1023.7 1023.7 0.4
27/03:00am 13.1 10.8 7.5 69 2.7 SSW 9 20 5 11 1023.8 1023.8 0.4
27/02:30am 13.1 10.8 7.3 68 2.8 S 9 15 5 8 1023.9 1023.9 0.4
27/02:00am 12.8 10.4 6.8 67 2.9 S 9 15 5 8 1024.1 1024.1 0.4
27/01:30am 12.9 10.4 6.5 65 3.1 SSW 9 19 5 10 1024.3 1024.3 0.4
27/01:00am 13.0 10.6 7.0 67 2.9 S 9 19 5 10 1024.4 1024.4 0.4
27/12:30am 13.0 11.0 6.4 64 3.1 SSW 6 11 3 6 1024.6 1024.6 0.4
27/12:00am 13.2 10.3 6.5 64 3.2 SSW 11 19 6 10 1024.7 1024.7 0.4
 
Date/Time
EDT
Temp
°C
App
Temp
°C
Dew
Point
Rel
Hum
%
Delta-T
°C
Wind Press
QNH
hPa
Press
MSL
hPa
Rain
since 9 am
mm
Dir
 
Spd
km/h
Gust
km/h
Spd
kts
Gust
kts
26/11:30pm 13.4 10.9 6.5 63 3.3 SSW 9 19 5 10 1024.6 1024.6 0.4
26/11:00pm 13.5 11.1 7.1 65 3.1 SSW 9 17 5 9 1024.6 1024.6 0.4
26/10:30pm 13.6 11.2 7.2 65 3.1 SSW 9 19 5 10 1024.4 1024.4 0.4
26/10:00pm 13.6 11.2 7.2 65 3.1 SSW 9 19 5 10 1024.2 1024.2 0.4
26/09:30pm 13.6 11.1 8.0 69 2.8 S 11 20 6 11 1023.9 1023.9 0.4
26/09:00pm 13.7 11.3 8.7 72 2.5 S 11 20 6 11 1023.6 1023.6 0.4
26/08:30pm 13.7 11.3 8.7 72 2.5 SW 11 17 6 9 1023.4 1023.4 0.4
26/08:00pm 14.0 11.3 8.8 71 2.6 SW 13 22 7 12 1023.3 1023.3 0.4
26/07:30pm 14.4 12.1 9.0 70 2.7 SSW 11 22 6 12 1023.2 1023.2 0.4
26/07:00pm 15.4 13.3 9.7 69 2.9 S 11 20 6 11 1022.8 1022.8 0.4
26/06:30pm 15.7 13.7 10.2 70 2.9 S 11 26 6 14 1022.3 1022.3 0.4
26/06:00pm 16.1 12.7 9.3 64 3.5 SW 17 32 9 17 1022.2 1022.2 0.4
26/05:30pm 16.1 12.9 10.0 67 3.2 SW 17 30 9 16 1022.1 1022.1 0.4
26/05:00pm 16.1 13.2 9.8 66 3.3 SW 15 28 8 15 1022.0 1022.0 0.4
26/04:30pm 16.4 12.8 10.0 66 3.4 SW 19 28 10 15 1022.0 1022.0 0.4
26/04:00pm 17.0 13.6 10.4 65 3.5 SW 19 30 10 16 1021.9 1021.9 0.4
26/03:30pm 17.0 14.1 11.1 68 3.2 SW 17 26 9 14 1021.8 1021.8 0.4
26/03:00pm 16.2 14.1 12.4 78 2.1 SSW 15 24 8 13 1021.8 1021.8 0.4
26/02:30pm 16.2 14.6 13.9 86 1.3 SSW 15 24 8 13 1021.8 1021.8 0.4
26/02:00pm 14.9 13.7 13.9 94 0.6 SW 13 24 7 13 1021.8 1021.8 0.4
26/01:30pm 15.1 13.0 13.6 91 0.8 SW 17 28 9 15 1021.6 1021.6 0.2
26/01:00pm 15.7 13.0 11.7 77 2.2 W 17 30 9 16 1021.6 1021.6 0.0
26/12:30pm 16.0 13.0 12.0 77 2.2 W 19 33 10 18 1021.5 1021.5 0.0
26/12:00pm 16.6 13.7 11.1 70 2.9 W 17 28 9 15 1021.4 1021.4 0.0
26/11:30am 16.5 14.4 11.0 70 2.9 WSW 13 22 7 12 1021.3 1021.3 0.0
26/11:00am 16.1 14.6 10.4 69 3.0 W 9 17 5 9 1021.1 1021.1 0.0
26/10:30am 16.0 14.5 10.7 71 2.8 WNW 9 19 5 10 1021.2 1021.2 0.0
26/10:00am 15.7 14.2 10.5 71 2.7 W 9 19 5 10 1021.2 1021.2 0.0
26/09:30am 15.6 14.4 10.2 70 2.8 W 7 19 4 10 1021.1 1021.1 0.0
26/09:00am 14.4 13.3 9.8 74 2.4 WNW 6 13 3 7 1021.1 1021.1 1.6
26/08:30am 14.2 12.9 9.8 75 2.3 WNW 7 15 4 8 1020.9 1020.9 1.6
26/08:00am 13.7 12.6 9.9 78 2.0 WNW 6 13 3 7 1020.7 1020.7 1.6
26/07:30am 13.4 12.3 10.0 80 1.8 WNW 6 9 3 5 1020.4 1020.4 1.6
26/07:00am 13.1 11.7 9.5 79 1.8 W 7 11 4 6 1020.2 1020.2 1.6
26/06:30am 12.6 11.4 9.6 82 1.5 W 6 11 3 6 1020.0 1020.0 1.6
26/06:00am 12.2 10.7 9.2 82 1.5 W 7 15 4 8 1019.9 1019.9 1.6
26/05:30am 12.4 10.9 9.2 81 1.6 W 7 13 4 7 1019.7 1019.7 1.6
26/05:00am 12.5 11.0 9.3 81 1.6 W 7 15 4 8 1019.6 1019.6 1.6
26/04:30am 12.3 10.8 9.1 81 1.6 W 7 15 4 8 1019.6 1019.6 1.6
26/04:00am 12.4 10.8 8.9 79 1.7 W 7 15 4 8 1019.4 1019.4 1.6
26/03:30am 12.5 10.9 8.8 78 1.8 W 7 13 4 7 1019.5 1019.5 1.6
26/03:00am 12.5 10.8 8.4 76 2.0 W 7 11 4 6 1019.5 1019.5 1.6
26/02:30am 12.8 11.3 8.5 75 2.1 W 6 11 3 6 1019.8 1019.8 1.6
26/02:00am 12.6 11.2 8.7 77 1.9 WNW 6 11 3 6 1019.9 1019.9 1.6
26/01:30am 12.4 10.9 8.3 76 2.0 W 6 11 3 6 1020.1 1020.1 1.6
26/01:00am 12.4 10.8 8.1 75 2.1 W 6 9 3 5 1020.4 1020.4 1.6
26/12:30am 12.3 10.7 7.8 74 2.2 W 6 7 3 4 1020.7 1020.7 1.6
26/12:00am 12.6 10.9 7.5 71 2.5 W 6 11 3 6 1020.8 1020.8 1.6
 
Date/Time
EDT
Temp
°C
App
Temp
°C
Dew
Point
Rel
Hum
%
Delta-T
°C
Wind Press
QNH
hPa
Press
MSL
hPa
Rain
since 9 am
mm
Dir
 
Spd
km/h
Gust
km/h
Spd
kts
Gust
kts
25/11:30pm 12.8 10.9 7.7 71 2.5 WSW 7 13 4 7 1020.9 1020.9 1.6
25/11:00pm 13.2 10.9 7.6 69 2.7 WSW 9 22 5 12 1020.9 1020.9 1.6
25/10:30pm 13.3 10.4 8.0 70 2.6 WSW 13 22 7 12 1020.9 1020.9 1.6
25/10:00pm 13.5 9.7 7.5 67 2.9 WSW 17 32 9 17 1020.9 1020.9 1.6
25/09:30pm 13.5 10.3 8.4 71 2.5 WSW 15 24 8 13 1020.8 1020.8 1.6
25/09:00pm 13.7 10.0 9.4 75 2.2 SW 19 28 10 15 1020.6 1020.6 1.6
25/08:30pm 14.0 10.4 8.2 68 2.9 WSW 17 33 9 18 1020.3 1020.3 1.6
25/08:00pm 14.2 10.0 8.4 68 2.9 WSW 20 39 11 21 1020.1 1020.1 1.6
25/07:30pm 14.7 10.7 9.1 69 2.9 SW 20 39 11 21 1019.8 1019.8 1.6
25/07:00pm 15.1 11.1 9.0 67 3.1 WSW 20 39 11 21 1019.5 1019.5 1.6
25/06:30pm 15.5 10.3 9.0 65 3.3 WSW 26 44 14 24 1019.1 1019.1 1.6

Other Formats:

Comma delimited format used in spreadsheet applications
http://www.bom.gov.au/fwo/IDV60801/IDV60801.94892.axf

JavaScript Object Notation format (JSON) in row-major order
http://www.bom.gov.au/fwo/IDV60801/IDV60801.94892.json